< < Back
Terminal Aerodrome Forecast


Current Version              Previous Versions:   1  2  3  4  5  6  7  8  9  

Terminal Aerodrome Forecast

897
FTUS42 KCAE 260530
TAFCAE
TAF
KCAE 260530Z 2606/2706 10004KT P6SM SCT025 SCT250
      TEMPO 2610/2613 BKN012
     FM261800 12005KT P6SM BKN040=

Latest METAR

083
SAUS80 KWBC 260800
MTRCAE
METAR KCAE 260756Z 08003KT 5SM BR BKN004 OVC016 23/22 A3006 RMK AO2
SLP177 T02330217


USA.gov is the U.S. government's official web portal to all federal, state and local government web resources and services.